sensor_id;sensor_type;location;lat;lon;timestamp;pressure;altitude;pressure_sealevel;temperature;humidity
71149;BME280;59072;42.144;25.200;2024-01-15T00:01:42;99675.28;;;-2.64;88.88
71149;BME280;59072;42.144;25.200;2024-01-15T00:04:08;99679.00;;;-2.29;87.74
71149;BME280;59072;42.144;25.200;2024-01-15T00:06:34;99695.34;;;-2.55;88.08
71149;BME280;59072;42.144;25.200;2024-01-15T00:08:59;99684.47;;;-3.07;89.90
71149;BME280;59072;42.144;25.200;2024-01-15T00:11:25;99690.44;;;-3.73;92.02
71149;BME280;59072;42.144;25.200;2024-01-15T00:13:50;99704.44;;;-3.55;90.84
71149;BME280;59072;42.144;25.200;2024-01-15T00:16:15;99695.66;;;-3.44;91.00
71149;BME280;59072;42.144;25.200;2024-01-15T00:18:41;99671.91;;;-3.70;92.07
71149;BME280;59072;42.144;25.200;2024-01-15T00:21:06;99662.81;;;-4.15;94.46
71149;BME280;59072;42.144;25.200;2024-01-15T00:23:31;99687.34;;;-4.17;95.13
71149;BME280;59072;42.144;25.200;2024-01-15T00:25:57;99670.00;;;-3.68;92.84
71149;BME280;59072;42.144;25.200;2024-01-15T00:28:22;99684.53;;;-3.46;90.02
71149;BME280;59072;42.144;25.200;2024-01-15T00:30:48;99677.94;;;-3.31;90.43
71149;BME280;59072;42.144;25.200;2024-01-15T00:33:13;99680.69;;;-3.22;89.06
71149;BME280;59072;42.144;25.200;2024-01-15T00:35:40;99679.31;;;-3.27;89.52
71149;BME280;59072;42.144;25.200;2024-01-15T00:38:05;99671.63;;;-3.48;90.30
71149;BME280;59072;42.144;25.200;2024-01-15T00:40:30;99681.63;;;-3.24;90.30
71149;BME280;59072;42.144;25.200;2024-01-15T00:42:56;99683.09;;;-3.01;88.93
71149;BME280;59072;42.144;25.200;2024-01-15T00:45:21;99670.25;;;-3.22;89.65
71149;BME280;59072;42.144;25.200;2024-01-15T00:47:46;99679.06;;;-3.82;91.94
71149;BME280;59072;42.144;25.200;2024-01-15T00:50:12;99689.19;;;-3.20;90.82
71149;BME280;59072;42.144;25.200;2024-01-15T00:52:37;99666.13;;;-3.25;89.28
71149;BME280;59072;42.144;25.200;2024-01-15T00:55:03;99675.97;;;-2.99;88.31
71149;BME280;59072;42.144;25.200;2024-01-15T00:57:28;99666.41;;;-3.38;89.19
71149;BME280;59072;42.144;25.200;2024-01-15T00:59:54;99631.31;;;-3.92;91.80
71149;BME280;59072;42.144;25.200;2024-01-15T01:02:19;99658.72;;;-3.39;90.21
71149;BME280;59072;42.144;25.200;2024-01-15T01:04:45;99645.38;;;-3.17;88.90
71149;BME280;59072;42.144;25.200;2024-01-15T01:07:10;99671.28;;;-2.96;86.58
71149;BME280;59072;42.144;25.200;2024-01-15T01:09:35;99660.75;;;-3.04;86.84
71149;BME280;59072;42.144;25.200;2024-01-15T01:12:01;99634.00;;;-3.26;86.00
71149;BME280;59072;42.144;25.200;2024-01-15T01:14:26;99664.25;;;-3.72;88.48
71149;BME280;59072;42.144;25.200;2024-01-15T01:16:52;99658.63;;;-3.57;91.03
71149;BME280;59072;42.144;25.200;2024-01-15T01:19:17;99670.81;;;-3.29;88.05
71149;BME280;59072;42.144;25.200;2024-01-15T01:21:42;99672.69;;;-3.11;87.23
71149;BME280;59072;42.144;25.200;2024-01-15T01:24:08;99657.34;;;-3.14;85.76
71149;BME280;59072;42.144;25.200;2024-01-15T01:26:33;99674.25;;;-3.38;88.27
71149;BME280;59072;42.144;25.200;2024-01-15T01:28:59;99655.00;;;-3.17;87.68
71149;BME280;59072;42.144;25.200;2024-01-15T01:31:24;99669.81;;;-3.08;87.33
71149;BME280;59072;42.144;25.200;2024-01-15T01:33:50;99635.53;;;-3.33;88.94
71149;BME280;59072;42.144;25.200;2024-01-15T01:36:15;99672.66;;;-3.01;88.28
71149;BME280;59072;42.144;25.200;2024-01-15T01:38:41;99654.28;;;-3.00;87.58
71149;BME280;59072;42.144;25.200;2024-01-15T01:41:06;99678.47;;;-3.17;86.72
71149;BME280;59072;42.144;25.200;2024-01-15T01:43:32;99662.31;;;-3.50;87.65
71149;BME280;59072;42.144;25.200;2024-01-15T01:45:58;99679.03;;;-3.63;87.56
71149;BME280;59072;42.144;25.200;2024-01-15T01:48:25;99667.38;;;-3.68;90.93
71149;BME280;59072;42.144;25.200;2024-01-15T01:50:54;99649.28;;;-3.70;90.63
71149;BME280;59072;42.144;25.200;2024-01-15T01:53:23;99650.25;;;-3.71;90.47
71149;BME280;59072;42.144;25.200;2024-01-15T01:55:49;99660.38;;;-3.58;90.03
71149;BME280;59072;42.144;25.200;2024-01-15T01:58:16;99666.84;;;-3.52;90.10
71149;BME280;59072;42.144;25.200;2024-01-15T02:00:42;99645.56;;;-3.38;88.90
71149;BME280;59072;42.144;25.200;2024-01-15T02:03:08;99644.19;;;-3.91;89.84
71149;BME280;59072;42.144;25.200;2024-01-15T02:05:35;99648.03;;;-3.95;90.83
71149;BME280;59072;42.144;25.200;2024-01-15T02:08:00;99601.41;;;-4.17;91.35
71149;BME280;59072;42.144;25.200;2024-01-15T02:10:26;99635.63;;;-4.32;91.81
71149;BME280;59072;42.144;25.200;2024-01-15T02:12:51;99637.34;;;-4.52;92.39
71149;BME280;59072;42.144;25.200;2024-01-15T02:15:16;99635.41;;;-4.09;90.39
71149;BME280;59072;42.144;25.200;2024-01-15T02:18:14;99639.22;;;-4.73;90.06
71149;BME280;59072;42.144;25.200;2024-01-15T02:20:40;99621.56;;;-4.70;91.44
71149;BME280;59072;42.144;25.200;2024-01-15T02:23:10;99623.28;;;-4.49;90.84
71149;BME280;59072;42.144;25.200;2024-01-15T02:25:46;99627.06;;;-4.63;90.92
71149;BME280;59072;42.144;25.200;2024-01-15T02:28:13;99605.66;;;-5.07;91.52
71149;BME280;59072;42.144;25.200;2024-01-15T02:30:40;99590.84;;;-5.16;91.46
71149;BME280;59072;42.144;25.200;2024-01-15T02:33:10;99621.75;;;-4.52;88.98
71149;BME280;59072;42.144;25.200;2024-01-15T02:35:36;99632.34;;;-4.74;91.66
71149;BME280;59072;42.144;25.200;2024-01-15T02:38:02;99628.69;;;-4.72;91.94
71149;BME280;59072;42.144;25.200;2024-01-15T02:40:28;99626.09;;;-4.12;89.63
71149;BME280;59072;42.144;25.200;2024-01-15T02:42:53;99624.72;;;-3.96;90.38
71149;BME280;59072;42.144;25.200;2024-01-15T02:45:19;99611.19;;;-4.60;92.59
71149;BME280;59072;42.144;25.200;2024-01-15T02:47:45;99616.78;;;-4.65;93.18
71149;BME280;59072;42.144;25.200;2024-01-15T02:50:10;99642.28;;;-3.79;90.99
71149;BME280;59072;42.144;25.200;2024-01-15T02:52:35;99642.03;;;-3.76;89.93
71149;BME280;59072;42.144;25.200;2024-01-15T02:55:01;99615.81;;;-3.65;88.64
71149;BME280;59072;42.144;25.200;2024-01-15T02:57:26;99610.72;;;-3.56;87.40
71149;BME280;59072;42.144;25.200;2024-01-15T02:59:52;99614.56;;;-3.70;87.93
71149;BME280;59072;42.144;25.200;2024-01-15T03:02:17;99613.19;;;-3.45;86.31
71149;BME280;59072;42.144;25.200;2024-01-15T03:04:43;99604.72;;;-3.86;86.44
71149;BME280;59072;42.144;25.200;2024-01-15T03:07:09;99594.31;;;-3.96;88.28
71149;BME280;59072;42.144;25.200;2024-01-15T03:09:34;99597.00;;;-4.17;88.58
71149;BME280;59072;42.144;25.200;2024-01-15T03:11:59;99579.47;;;-4.15;88.63
71149;BME280;59072;42.144;25.200;2024-01-15T03:14:25;99604.19;;;-3.90;87.79
71149;BME280;59072;42.144;25.200;2024-01-15T03:16:51;99576.63;;;-3.92;87.94
71149;BME280;59072;42.144;25.200;2024-01-15T03:19:17;99608.56;;;-3.71;87.55
71149;BME280;59072;42.144;25.200;2024-01-15T03:21:42;99604.03;;;-3.98;88.36
71149;BME280;59072;42.144;25.200;2024-01-15T03:24:08;99604.97;;;-3.99;89.45
71149;BME280;59072;42.144;25.200;2024-01-15T03:26:33;99625.47;;;-4.45;90.07
71149;BME280;59072;42.144;25.200;2024-01-15T03:28:58;99620.28;;;-4.85;91.51
71149;BME280;59072;42.144;25.200;2024-01-15T03:31:24;99614.69;;;-5.11;92.82
71149;BME280;59072;42.144;25.200;2024-01-15T03:33:49;99612.59;;;-4.87;91.71
71149;BME280;59072;42.144;25.200;2024-01-15T03:36:15;99590.75;;;-5.05;90.92
71149;BME280;59072;42.144;25.200;2024-01-15T03:38:43;99621.66;;;-5.12;91.70
71149;BME280;59072;42.144;25.200;2024-01-15T03:41:08;99622.22;;;-5.08;92.97
71149;BME280;59072;42.144;25.200;2024-01-15T03:43:34;99609.75;;;-4.83;90.32
71149;BME280;59072;42.144;25.200;2024-01-15T03:45:59;99601.06;;;-4.63;88.99
71149;BME280;59072;42.144;25.200;2024-01-15T03:48:25;99621.50;;;-4.49;88.20
71149;BME280;59072;42.144;25.200;2024-01-15T03:50:50;99605.16;;;-5.01;91.26
71149;BME280;59072;42.144;25.200;2024-01-15T03:53:15;99607.84;;;-4.81;91.57
71149;BME280;59072;42.144;25.200;2024-01-15T03:55:42;99628.44;;;-4.59;90.84
71149;BME280;59072;42.144;25.200;2024-01-15T03:58:07;99595.19;;;-4.46;88.65
71149;BME280;59072;42.144;25.200;2024-01-15T04:00:32;99595.34;;;-4.47;88.63
71149;BME280;59072;42.144;25.200;2024-01-15T04:02:58;99622.75;;;-4.33;88.07
71149;BME280;59072;42.144;25.200;2024-01-15T04:05:23;99639.91;;;-4.21;87.46
71149;BME280;59072;42.144;25.200;2024-01-15T04:07:48;99629.63;;;-4.32;88.80
71149;BME280;59072;42.144;25.200;2024-01-15T04:10:14;99615.38;;;-4.09;87.40
71149;BME280;59072;42.144;25.200;2024-01-15T04:12:40;99615.69;;;-3.92;86.12
71149;BME280;59072;42.144;25.200;2024-01-15T04:15:05;99588.22;;;-4.35;89.03
71149;BME280;59072;42.144;25.200;2024-01-15T04:17:31;99588.94;;;-4.24;87.34
71149;BME280;59072;42.144;25.200;2024-01-15T04:19:56;99603.84;;;-4.35;87.96
71149;BME280;59072;42.144;25.200;2024-01-15T04:22:22;99604.06;;;-4.58;90.73
71149;BME280;59072;42.144;25.200;2024-01-15T04:24:48;99605.41;;;-4.73;90.84
71149;BME280;59072;42.144;25.200;2024-01-15T04:27:13;99607.88;;;-4.62;89.69
71149;BME280;59072;42.144;25.200;2024-01-15T04:29:39;99615.09;;;-4.25;88.45
71149;BME280;59072;42.144;25.200;2024-01-15T04:32:05;99620.59;;;-4.28;88.39
71149;BME280;59072;42.144;25.200;2024-01-15T04:34:30;99625.81;;;-4.18;87.81
71149;BME280;59072;42.144;25.200;2024-01-15T04:36:55;99623.06;;;-4.07;87.07
71149;BME280;59072;42.144;25.200;2024-01-15T04:39:21;99581.94;;;-4.33;87.73
71149;BME280;59072;42.144;25.200;2024-01-15T04:41:47;99623.78;;;-3.76;86.47
71149;BME280;59072;42.144;25.200;2024-01-15T04:44:13;99589.75;;;-4.13;86.39
71149;BME280;59072;42.144;25.200;2024-01-15T04:46:38;99615.94;;;-4.15;87.00
71149;BME280;59072;42.144;25.200;2024-01-15T04:49:03;99600.56;;;-4.28;87.48
71149;BME280;59072;42.144;25.200;2024-01-15T04:51:29;99616.47;;;-4.21;88.38
71149;BME280;59072;42.144;25.200;2024-01-15T04:53:54;99592.50;;;-4.15;87.48
71149;BME280;59072;42.144;25.200;2024-01-15T04:56:19;99591.53;;;-3.94;85.96
71149;BME280;59072;42.144;25.200;2024-01-15T04:58:45;99600.47;;;-3.97;85.87
71149;BME280;59072;42.144;25.200;2024-01-15T05:01:10;99595.78;;;-4.13;86.29
71149;BME280;59072;42.144;25.200;2024-01-15T05:03:36;99620.03;;;-4.22;85.25
71149;BME280;59072;42.144;25.200;2024-01-15T05:06:01;99605.31;;;-4.93;87.47
71149;BME280;59072;42.144;25.200;2024-01-15T05:08:27;99585.56;;;-5.05;89.20
71149;BME280;59072;42.144;25.200;2024-01-15T05:10:53;99574.69;;;-5.72;88.98
71149;BME280;59072;42.144;25.200;2024-01-15T05:13:18;99593.06;;;-5.63;88.19
71149;BME280;59072;42.144;25.200;2024-01-15T05:15:44;99581.31;;;-6.21;89.63
71149;BME280;59072;42.144;25.200;2024-01-15T05:18:09;99587.63;;;-6.14;91.06
71149;BME280;59072;42.144;25.200;2024-01-15T05:20:34;99585.41;;;-6.18;91.75
71149;BME280;59072;42.144;25.200;2024-01-15T05:23:00;99571.69;;;-6.41;94.15
71149;BME280;59072;42.144;25.200;2024-01-15T05:25:25;99591.59;;;-5.98;94.44
71149;BME280;59072;42.144;25.200;2024-01-15T05:27:51;99566.63;;;-5.69;93.68
71149;BME280;59072;42.144;25.200;2024-01-15T05:30:16;99550.66;;;-5.85;94.73
71149;BME280;59072;42.144;25.200;2024-01-15T05:32:42;99582.16;;;-5.57;95.04
71149;BME280;59072;42.144;25.200;2024-01-15T05:35:07;99554.66;;;-5.29;93.74
71149;BME280;59072;42.144;25.200;2024-01-15T05:37:33;99531.69;;;-4.93;91.25
71149;BME280;59072;42.144;25.200;2024-01-15T05:39:58;99541.16;;;-4.92;90.33
71149;BME280;59072;42.144;25.200;2024-01-15T05:42:24;99554.59;;;-4.77;90.08
71149;BME280;59072;42.144;25.200;2024-01-15T05:44:49;99552.56;;;-4.64;89.53
71149;BME280;59072;42.144;25.200;2024-01-15T05:47:14;99524.31;;;-4.78;88.33
71149;BME280;59072;42.144;25.200;2024-01-15T05:49:40;99568.88;;;-4.52;88.83
71149;BME280;59072;42.144;25.200;2024-01-15T05:52:05;99571.06;;;-4.48;88.91
71149;BME280;59072;42.144;25.200;2024-01-15T05:54:31;99543.81;;;-4.63;89.33
71149;BME280;59072;42.144;25.200;2024-01-15T05:56:57;99565.19;;;-4.50;88.73
71149;BME280;59072;42.144;25.200;2024-01-15T05:59:22;99564.66;;;-4.53;89.31
71149;BME280;59072;42.144;25.200;2024-01-15T06:01:48;99573.31;;;-4.24;88.14
71149;BME280;59072;42.144;25.200;2024-01-15T06:04:13;99546.22;;;-4.81;89.79
71149;BME280;59072;42.144;25.200;2024-01-15T06:06:39;99518.72;;;-4.74;91.10
71149;BME280;59072;42.144;25.200;2024-01-15T06:09:04;99525.13;;;-4.88;90.92
71149;BME280;59072;42.144;25.200;2024-01-15T06:11:34;99524.06;;;-4.75;91.23
71149;BME280;59072;42.144;25.200;2024-01-15T06:14:00;99518.63;;;-5.13;94.69
71149;BME280;59072;42.144;25.200;2024-01-15T06:16:28;99519.16;;;-5.09;97.10
71149;BME280;59072;42.144;25.200;2024-01-15T06:18:54;99528.22;;;-5.03;98.64
71149;BME280;59072;42.144;25.200;2024-01-15T06:21:19;99541.59;;;-4.58;97.09
71149;BME280;59072;42.144;25.200;2024-01-15T06:23:45;99544.56;;;-4.92;99.88
71149;BME280;59072;42.144;25.200;2024-01-15T06:26:13;99536.63;;;-4.80;99.58
71149;BME280;59072;42.144;25.200;2024-01-15T06:28:39;99564.53;;;-4.32;99.33
71149;BME280;59072;42.144;25.200;2024-01-15T06:31:06;99572.63;;;-3.77;94.71
71149;BME280;59072;42.144;25.200;2024-01-15T06:33:32;99560.69;;;-4.09;93.83
71149;BME280;59072;42.144;25.200;2024-01-15T06:35:57;99563.31;;;-3.89;92.69
71149;BME280;59072;42.144;25.200;2024-01-15T06:38:22;99547.41;;;-4.06;92.51
71149;BME280;59072;42.144;25.200;2024-01-15T06:40:48;99588.81;;;-4.22;95.68
71149;BME280;59072;42.144;25.200;2024-01-15T06:43:14;99586.63;;;-4.07;95.90
71149;BME280;59072;42.144;25.200;2024-01-15T06:45:41;99555.91;;;-4.33;96.48
71149;BME280;59072;42.144;25.200;2024-01-15T06:48:06;99537.53;;;-4.31;97.33
71149;BME280;59072;42.144;25.200;2024-01-15T06:50:33;99554.00;;;-4.01;95.71
71149;BME280;59072;42.144;25.200;2024-01-15T06:52:58;99541.22;;;-4.53;99.12
71149;BME280;59072;42.144;25.200;2024-01-15T06:55:24;99499.53;;;-4.82;100.00
71149;BME280;59072;42.144;25.200;2024-01-15T06:57:50;99525.72;;;-3.96;99.32
71149;BME280;59072;42.144;25.200;2024-01-15T07:00:16;99557.53;;;-3.83;97.64
71149;BME280;59072;42.144;25.200;2024-01-15T07:02:41;99545.97;;;-3.51;96.29
71149;BME280;59072;42.144;25.200;2024-01-15T07:05:07;99584.88;;;-3.20;94.99
71149;BME280;59072;42.144;25.200;2024-01-15T07:07:32;99564.78;;;-3.10;94.21
71149;BME280;59072;42.144;25.200;2024-01-15T07:09:58;99577.16;;;-3.12;94.74
71149;BME280;59072;42.144;25.200;2024-01-15T07:12:23;99566.22;;;-3.35;94.73
71149;BME280;59072;42.144;25.200;2024-01-15T07:14:49;99583.66;;;-2.98;93.29
71149;BME280;59072;42.144;25.200;2024-01-15T07:17:15;99563.06;;;-2.92;92.02
71149;BME280;59072;42.144;25.200;2024-01-15T07:19:40;99581.72;;;-2.87;91.62
71149;BME280;59072;42.144;25.200;2024-01-15T07:22:06;99571.47;;;-2.70;90.92
71149;BME280;59072;42.144;25.200;2024-01-15T07:24:32;99571.28;;;-2.87;91.06
71149;BME280;59072;42.144;25.200;2024-01-15T07:26:59;99554.41;;;-2.92;92.81
71149;BME280;59072;42.144;25.200;2024-01-15T07:29:25;99545.84;;;-3.12;93.46
71149;BME280;59072;42.144;25.200;2024-01-15T07:31:51;99564.06;;;-2.75;94.50
71149;BME280;59072;42.144;25.200;2024-01-15T07:34:17;99545.34;;;-2.43;90.98
71149;BME280;59072;42.144;25.200;2024-01-15T07:36:45;99560.69;;;-2.57;91.66
71149;BME280;59072;42.144;25.200;2024-01-15T07:39:11;99582.44;;;-2.21;90.22
71149;BME280;59072;42.144;25.200;2024-01-15T07:41:36;99578.81;;;-2.10;89.49
71149;BME280;59072;42.144;25.200;2024-01-15T07:44:02;99574.84;;;-2.14;91.24
71149;BME280;59072;42.144;25.200;2024-01-15T07:46:27;99580.03;;;-1.96;89.73
71149;BME280;59072;42.144;25.200;2024-01-15T07:48:53;99539.44;;;-2.09;90.04
71149;BME280;59072;42.144;25.200;2024-01-15T07:51:24;99530.31;;;-1.87;89.61
71149;BME280;59072;42.144;25.200;2024-01-15T07:53:53;99543.69;;;-1.90;89.95
71149;BME280;59072;42.144;25.200;2024-01-15T07:56:20;99549.34;;;-1.94;90.47
71149;BME280;59072;42.144;25.200;2024-01-15T07:58:46;99563.47;;;-2.23;95.14
71149;BME280;59072;42.144;25.200;2024-01-15T08:01:12;99581.59;;;-1.68;92.52
71149;BME280;59072;42.144;25.200;2024-01-15T08:03:37;99573.75;;;-1.68;92.01
71149;BME280;59072;42.144;25.200;2024-01-15T08:06:03;99600.28;;;-1.63;92.04
71149;BME280;59072;42.144;25.200;2024-01-15T08:08:28;99559.75;;;-2.03;92.47
71149;BME280;59072;42.144;25.200;2024-01-15T08:10:54;99574.47;;;-1.57;92.71
71149;BME280;59072;42.144;25.200;2024-01-15T08:13:19;99570.97;;;-1.48;93.08
71149;BME280;59072;42.144;25.200;2024-01-15T08:15:45;99556.00;;;-1.82;92.98
71149;BME280;59072;42.144;25.200;2024-01-15T08:18:11;99588.63;;;-1.68;97.77
71149;BME280;59072;42.144;25.200;2024-01-15T08:20:37;99607.09;;;-1.44;97.29
71149;BME280;59072;42.144;25.200;2024-01-15T08:23:03;99599.53;;;-1.73;99.07
71149;BME280;59072;42.144;25.200;2024-01-15T08:25:28;99584.03;;;-1.48;96.89
71149;BME280;59072;42.144;25.200;2024-01-15T08:27:55;99543.81;;;-1.73;98.91
71149;BME280;59072;42.144;25.200;2024-01-15T08:30:20;99581.31;;;-1.65;97.92
71149;BME280;59072;42.144;25.200;2024-01-15T08:32:46;99562.28;;;-1.49;99.30
71149;BME280;59072;42.144;25.200;2024-01-15T08:35:11;99536.97;;;-1.48;99.85
71149;BME280;59072;42.144;25.200;2024-01-15T08:37:38;99560.03;;;-1.17;98.97
71149;BME280;59072;42.144;25.200;2024-01-15T08:40:03;99574.88;;;-0.92;98.06
71149;BME280;59072;42.144;25.200;2024-01-15T08:42:29;99583.91;;;-0.35;95.66
71149;BME280;59072;42.144;25.200;2024-01-15T08:44:54;99592.47;;;-0.17;92.99
71149;BME280;59072;42.144;25.200;2024-01-15T08:47:20;99577.84;;;-0.36;94.33
71149;BME280;59072;42.144;25.200;2024-01-15T08:49:45;99576.06;;;-0.27;98.32
71149;BME280;59072;42.144;25.200;2024-01-15T08:52:11;99570.06;;;0.13;96.22
71149;BME280;59072;42.144;25.200;2024-01-15T08:54:37;99552.69;;;0.45;93.45
71149;BME280;59072;42.144;25.200;2024-01-15T08:57:02;99556.84;;;0.87;94.29
71149;BME280;59072;42.144;25.200;2024-01-15T08:59:28;99558.66;;;0.87;91.01
71149;BME280;59072;42.144;25.200;2024-01-15T09:01:53;99560.84;;;0.67;92.35
71149;BME280;59072;42.144;25.200;2024-01-15T09:04:19;99582.56;;;1.00;92.72
71149;BME280;59072;42.144;25.200;2024-01-15T09:06:45;99566.97;;;1.07;92.05
71149;BME280;59072;42.144;25.200;2024-01-15T09:09:12;99559.78;;;1.40;91.01
71149;BME280;59072;42.144;25.200;2024-01-15T09:11:37;99549.25;;;1.40;90.18
71149;BME280;59072;42.144;25.200;2024-01-15T09:14:03;99557.81;;;1.65;87.94
71149;BME280;59072;42.144;25.200;2024-01-15T09:16:28;99549.59;;;1.68;86.26
71149;BME280;59072;42.144;25.200;2024-01-15T09:18:54;99556.09;;;1.80;84.96
71149;BME280;59072;42.144;25.200;2024-01-15T09:21:22;99544.31;;;2.14;83.01
71149;BME280;59072;42.144;25.200;2024-01-15T09:23:48;99523.56;;;2.05;79.91
71149;BME280;59072;42.144;25.200;2024-01-15T09:26:14;99550.38;;;2.38;76.43
71149;BME280;59072;42.144;25.200;2024-01-15T09:28:39;99535.84;;;2.04;77.61
71149;BME280;59072;42.144;25.200;2024-01-15T09:31:04;99534.28;;;2.18;77.78
71149;BME280;59072;42.144;25.200;2024-01-15T09:33:30;99525.66;;;1.86;80.55
71149;BME280;59072;42.144;25.200;2024-01-15T09:35:55;99530.56;;;1.89;79.71
71149;BME280;59072;42.144;25.200;2024-01-15T09:38:21;99517.81;;;2.01;79.24
71149;BME280;59072;42.144;25.200;2024-01-15T09:40:46;99516.59;;;1.89;81.14
71149;BME280;59072;42.144;25.200;2024-01-15T09:43:12;99513.84;;;2.05;79.23
71149;BME280;59072;42.144;25.200;2024-01-15T09:45:39;99503.25;;;2.13;78.10
71149;BME280;59072;42.144;25.200;2024-01-15T09:48:05;99517.16;;;2.37;76.51
71149;BME280;59072;42.144;25.200;2024-01-15T09:50:31;99481.72;;;2.10;76.99
71149;BME280;59072;42.144;25.200;2024-01-15T09:52:57;99492.66;;;2.21;76.13
71149;BME280;59072;42.144;25.200;2024-01-15T09:55:22;99485.19;;;2.10;77.21
71149;BME280;59072;42.144;25.200;2024-01-15T09:57:49;99482.69;;;2.47;76.43
71149;BME280;59072;42.144;25.200;2024-01-15T10:00:17;99466.72;;;2.63;75.77
71149;BME280;59072;42.144;25.200;2024-01-15T10:02:43;99466.44;;;2.88;74.34
71149;BME280;59072;42.144;25.200;2024-01-15T10:05:09;99476.03;;;3.10;72.69
71149;BME280;59072;42.144;25.200;2024-01-15T10:07:36;99454.22;;;3.16;71.12
71149;BME280;59072;42.144;25.200;2024-01-15T10:10:02;99468.28;;;3.60;69.54
71149;BME280;59072;42.144;25.200;2024-01-15T10:12:32;99463.34;;;3.35;68.84
71149;BME280;59072;42.144;25.200;2024-01-15T10:14:58;99453.50;;;3.66;67.70
71149;BME280;59072;42.144;25.200;2024-01-15T10:17:24;99447.09;;;3.53;70.93
71149;BME280;59072;42.144;25.200;2024-01-15T10:19:52;99422.59;;;3.81;68.67
71149;BME280;59072;42.144;25.200;2024-01-15T10:22:17;99424.59;;;4.00;69.52
71149;BME280;59072;42.144;25.200;2024-01-15T10:24:43;99420.34;;;4.34;66.72
71149;BME280;59072;42.144;25.200;2024-01-15T10:27:09;99428.97;;;4.50;66.64
71149;BME280;59072;42.144;25.200;2024-01-15T10:29:35;99438.66;;;4.42;65.93
71149;BME280;59072;42.144;25.200;2024-01-15T10:32:01;99415.97;;;3.92;67.13
71149;BME280;59072;42.144;25.200;2024-01-15T10:34:26;99419.84;;;3.68;68.43
71149;BME280;59072;42.144;25.200;2024-01-15T10:36:52;99423.06;;;4.13;67.44
71149;BME280;59072;42.144;25.200;2024-01-15T10:39:24;99416.84;;;4.27;64.94
71149;BME280;59072;42.144;25.200;2024-01-15T10:41:50;99433.09;;;4.66;63.43
71149;BME280;59072;42.144;25.200;2024-01-15T10:44:17;99424.94;;;4.60;61.98
71149;BME280;59072;42.144;25.200;2024-01-15T10:46:43;99406.50;;;4.32;61.85
71149;BME280;59072;42.144;25.200;2024-01-15T10:49:09;99396.81;;;4.39;61.74
71149;BME280;59072;42.144;25.200;2024-01-15T10:51:36;99409.28;;;4.59;62.99
71149;BME280;59072;42.144;25.200;2024-01-15T10:54:01;99392.78;;;4.43;60.88
71149;BME280;59072;42.144;25.200;2024-01-15T10:56:30;99396.53;;;4.69;59.61
71149;BME280;59072;42.144;25.200;2024-01-15T10:58:56;99389.91;;;4.38;60.61
71149;BME280;59072;42.144;25.200;2024-01-15T11:01:23;99372.50;;;4.51;60.32
71149;BME280;59072;42.144;25.200;2024-01-15T11:03:49;99379.47;;;4.65;57.35
71149;BME280;59072;42.144;25.200;2024-01-15T11:06:18;99381.59;;;4.96;60.76
71149;BME280;59072;42.144;25.200;2024-01-15T11:08:50;99382.09;;;6.20;56.66
71149;BME280;59072;42.144;25.200;2024-01-15T11:11:20;99377.03;;;6.77;56.71
71149;BME280;59072;42.144;25.200;2024-01-15T11:13:47;99370.06;;;6.82;54.45
71149;BME280;59072;42.144;25.200;2024-01-15T11:16:15;99363.34;;;7.18;55.34
71149;BME280;59072;42.144;25.200;2024-01-15T11:18:42;99400.03;;;7.53;53.65
71149;BME280;59072;42.144;25.200;2024-01-15T11:23:47;99372.88;;;8.01;53.11
71149;BME280;59072;42.144;25.200;2024-01-15T11:26:31;99363.84;;;8.09;52.26
71149;BME280;59072;42.144;25.200;2024-01-15T11:28:59;99373.72;;;8.76;49.30
71149;BME280;59072;42.144;25.200;2024-01-15T11:34:17;99371.50;;;9.21;49.00
71149;BME280;59072;42.144;25.200;2024-01-15T11:37:02;99348.19;;;9.47;49.84
71149;BME280;59072;42.144;25.200;2024-01-15T11:41:59;99342.03;;;9.35;48.74
71149;BME280;59072;42.144;25.200;2024-01-15T11:44:25;99337.56;;;9.71;46.81
71149;BME280;59072;42.144;25.200;2024-01-15T11:52:00;99319.03;;;8.50;48.97
71149;BME280;59072;42.144;25.200;2024-01-15T11:54:29;99301.88;;;7.72;51.68
71149;BME280;59072;42.144;25.200;2024-01-15T11:57:00;99305.91;;;7.99;53.05
71149;BME280;59072;42.144;25.200;2024-01-15T11:59:29;99331.63;;;8.91;48.91
71149;BME280;59072;42.144;25.200;2024-01-15T12:01:54;99313.59;;;9.71;45.86
71149;BME280;59072;42.144;25.200;2024-01-15T12:04:23;99289.03;;;9.45;47.12
71149;BME280;59072;42.144;25.200;2024-01-15T12:06:48;99295.28;;;10.10;44.88
71149;BME280;59072;42.144;25.200;2024-01-15T12:09:13;99303.41;;;9.79;46.64
71149;BME280;59072;42.144;25.200;2024-01-15T12:11:42;99296.31;;;10.32;44.07
71149;BME280;59072;42.144;25.200;2024-01-15T12:14:12;99299.25;;;10.48;44.51
71149;BME280;59072;42.144;25.200;2024-01-15T12:16:38;99293.66;;;10.90;41.71
71149;BME280;59072;42.144;25.200;2024-01-15T12:19:03;99278.94;;;10.18;45.00
71149;BME280;59072;42.144;25.200;2024-01-15T12:21:29;99260.91;;;9.84;44.27
71149;BME280;59072;42.144;25.200;2024-01-15T12:23:55;99257.81;;;9.40;45.81
71149;BME280;59072;42.144;25.200;2024-01-15T12:26:21;99285.25;;;8.99;46.69
71149;BME280;59072;42.144;25.200;2024-01-15T12:28:46;99273.19;;;8.84;47.36
71149;BME280;59072;42.144;25.200;2024-01-15T12:31:12;99279.41;;;8.78;47.81
71149;BME280;59072;42.144;25.200;2024-01-15T12:33:38;99289.19;;;8.96;46.38
71149;BME280;59072;42.144;25.200;2024-01-15T12:36:04;99272.97;;;8.56;48.38
71149;BME280;59072;42.144;25.200;2024-01-15T12:38:29;99277.97;;;8.64;48.22
71149;BME280;59072;42.144;25.200;2024-01-15T12:40:55;99266.22;;;8.72;48.40
71149;BME280;59072;42.144;25.200;2024-01-15T12:43:20;99246.59;;;8.24;49.00
71149;BME280;59072;42.144;25.200;2024-01-15T12:45:46;99243.94;;;7.50;52.04
71149;BME280;59072;42.144;25.200;2024-01-15T12:48:11;99234.22;;;7.62;51.49
71149;BME280;59072;42.144;25.200;2024-01-15T12:50:38;99198.75;;;7.38;52.55
71149;BME280;59072;42.144;25.200;2024-01-15T12:53:04;99215.06;;;7.60;53.44
71149;BME280;59072;42.144;25.200;2024-01-15T12:55:29;99195.69;;;7.16;53.32
71149;BME280;59072;42.144;25.200;2024-01-15T12:57:54;99219.44;;;7.30;54.09
71149;BME280;59072;42.144;25.200;2024-01-15T13:00:20;99209.59;;;7.12;54.17